sensor_id;sensor_type;location;lat;lon;timestamp;pressure;altitude;pressure_sealevel;temperature;humidity
20696;BME280;10507;52.754;13.040;2023-03-15T00:01:15;99558.38;;;1.12;99.41
20696;BME280;10507;52.754;13.040;2023-03-15T00:03:44;99561.88;;;1.11;99.11
20696;BME280;10507;52.754;13.040;2023-03-15T00:06:12;99589.84;;;1.14;99.53
20696;BME280;10507;52.754;13.040;2023-03-15T00:08:41;99618.63;;;1.18;99.33
20696;BME280;10507;52.754;13.040;2023-03-15T00:11:14;99608.13;;;1.18;98.99
20696;BME280;10507;52.754;13.040;2023-03-15T00:13:42;99607.22;;;1.19;98.95
20696;BME280;10507;52.754;13.040;2023-03-15T00:16:11;99598.44;;;1.20;98.95
20696;BME280;10507;52.754;13.040;2023-03-15T00:18:43;99613.09;;;1.28;98.90
20696;BME280;10507;52.754;13.040;2023-03-15T00:21:12;99603.50;;;1.27;99.05
20696;BME280;10507;52.754;13.040;2023-03-15T00:23:40;99591.25;;;1.25;98.69
20696;BME280;10507;52.754;13.040;2023-03-15T00:26:08;99600.78;;;1.30;98.36
20696;BME280;10507;52.754;13.040;2023-03-15T00:28:35;99588.63;;;1.25;98.66
20696;BME280;10507;52.754;13.040;2023-03-15T00:31:04;99593.03;;;1.25;98.64
20696;BME280;10507;52.754;13.040;2023-03-15T00:33:34;99587.72;;;1.27;98.40
20696;BME280;10507;52.754;13.040;2023-03-15T00:36:03;99574.69;;;1.23;98.34
20696;BME280;10507;52.754;13.040;2023-03-15T00:38:32;99602.69;;;1.24;98.21
20696;BME280;10507;52.754;13.040;2023-03-15T00:41:03;99588.00;;;1.17;98.25
20696;BME280;10507;52.754;13.040;2023-03-15T00:43:32;99596.84;;;1.15;98.62
20696;BME280;10507;52.754;13.040;2023-03-15T00:46:00;99596.06;;;1.11;98.55
20696;BME280;10507;52.754;13.040;2023-03-15T00:48:28;99624.09;;;1.12;98.67
20696;BME280;10507;52.754;13.040;2023-03-15T00:51:08;99617.09;;;1.11;98.49
20696;BME280;10507;52.754;13.040;2023-03-15T00:53:38;99629.50;;;1.06;98.78
20696;BME280;10507;52.754;13.040;2023-03-15T00:56:08;99637.44;;;1.04;99.21
20696;BME280;10507;52.754;13.040;2023-03-15T00:58:37;99652.38;;;1.02;99.18
20696;BME280;10507;52.754;13.040;2023-03-15T01:01:07;99651.53;;;1.00;98.98
20696;BME280;10507;52.754;13.040;2023-03-15T01:03:35;99664.75;;;0.99;99.17
20696;BME280;10507;52.754;13.040;2023-03-15T01:06:04;99656.09;;;0.94;99.04
20696;BME280;10507;52.754;13.040;2023-03-15T01:08:34;99680.66;;;0.93;99.60
20696;BME280;10507;52.754;13.040;2023-03-15T01:11:03;99680.72;;;0.90;99.42
20696;BME280;10507;52.754;13.040;2023-03-15T01:13:31;99695.72;;;0.86;99.40
20696;BME280;10507;52.754;13.040;2023-03-15T01:15:59;99716.78;;;0.85;99.71
20696;BME280;10507;52.754;13.040;2023-03-15T01:18:27;99716.88;;;0.81;99.86
20696;BME280;10507;52.754;13.040;2023-03-15T01:20:55;99738.88;;;0.77;99.94
20696;BME280;10507;52.754;13.040;2023-03-15T01:23:23;99769.41;;;0.81;100.00
20696;BME280;10507;52.754;13.040;2023-03-15T01:25:52;99765.94;;;0.81;100.00
20696;BME280;10507;52.754;13.040;2023-03-15T01:28:20;99772.09;;;0.78;99.78
20696;BME280;10507;52.754;13.040;2023-03-15T01:30:48;99789.53;;;0.82;99.88
20696;BME280;10507;52.754;13.040;2023-03-15T01:33:16;99790.41;;;0.83;99.66
20696;BME280;10507;52.754;13.040;2023-03-15T01:35:44;99786.06;;;0.80;100.00
20696;BME280;10507;52.754;13.040;2023-03-15T01:38:12;99803.56;;;0.81;100.00
20696;BME280;10507;52.754;13.040;2023-03-15T01:40:41;99782.63;;;0.78;100.00
20696;BME280;10507;52.754;13.040;2023-03-15T01:43:17;99797.53;;;0.78;100.00
20696;BME280;10507;52.754;13.040;2023-03-15T01:45:59;99816.03;;;0.73;100.00
20696;BME280;10507;52.754;13.040;2023-03-15T01:48:33;99812.63;;;0.70;100.00
20696;BME280;10507;52.754;13.040;2023-03-15T01:51:04;99827.56;;;0.68;100.00
20696;BME280;10507;52.754;13.040;2023-03-15T01:53:34;99839.00;;;0.65;100.00
20696;BME280;10507;52.754;13.040;2023-03-15T01:56:04;99852.19;;;0.60;100.00
20696;BME280;10507;52.754;13.040;2023-03-15T01:58:34;99856.69;;;0.57;100.00
20696;BME280;10507;52.754;13.040;2023-03-15T02:01:03;99846.28;;;0.51;100.00
20696;BME280;10507;52.754;13.040;2023-03-15T02:03:33;99867.31;;;0.49;100.00
20696;BME280;10507;52.754;13.040;2023-03-15T02:06:05;99876.19;;;0.45;100.00
20696;BME280;10507;52.754;13.040;2023-03-15T02:08:46;99898.94;;;0.45;100.00
20696;BME280;10507;52.754;13.040;2023-03-15T02:11:18;99908.53;;;0.47;100.00
20696;BME280;10507;52.754;13.040;2023-03-15T02:13:50;99909.50;;;0.43;100.00
20696;BME280;10507;52.754;13.040;2023-03-15T02:16:20;99923.47;;;0.44;100.00
20696;BME280;10507;52.754;13.040;2023-03-15T02:18:51;99937.50;;;0.43;100.00
20696;BME280;10507;52.754;13.040;2023-03-15T02:21:28;99944.50;;;0.42;100.00
20696;BME280;10507;52.754;13.040;2023-03-15T02:24:06;99932.31;;;0.39;100.00
20696;BME280;10507;52.754;13.040;2023-03-15T02:26:39;99959.41;;;0.41;100.00
20696;BME280;10507;52.754;13.040;2023-03-15T02:29:10;99969.91;;;0.43;100.00
20696;BME280;10507;52.754;13.040;2023-03-15T02:31:39;99968.13;;;0.44;100.00
20696;BME280;10507;52.754;13.040;2023-03-15T02:34:07;99972.53;;;0.41;100.00
20696;BME280;10507;52.754;13.040;2023-03-15T02:36:35;99958.56;;;0.39;100.00
20696;BME280;10507;52.754;13.040;2023-03-15T02:39:13;100000.47;;;0.46;100.00
20696;BME280;10507;52.754;13.040;2023-03-15T02:41:43;99993.44;;;0.48;100.00
20696;BME280;10507;52.754;13.040;2023-03-15T02:44:17;99996.94;;;0.47;100.00
20696;BME280;10507;52.754;13.040;2023-03-15T02:46:47;99984.75;;;0.44;100.00
20696;BME280;10507;52.754;13.040;2023-03-15T02:49:17;100010.97;;;0.47;100.00
20696;BME280;10507;52.754;13.040;2023-03-15T02:51:48;99986.56;;;0.40;100.00
20696;BME280;10507;52.754;13.040;2023-03-15T02:54:16;99991.00;;;0.38;100.00
20696;BME280;10507;52.754;13.040;2023-03-15T02:56:44;99987.53;;;0.35;100.00
20696;BME280;10507;52.754;13.040;2023-03-15T02:59:14;100015.47;;;0.39;100.00
20696;BME280;10507;52.754;13.040;2023-03-15T03:01:42;100035.63;;;0.38;100.00
20696;BME280;10507;52.754;13.040;2023-03-15T03:04:11;100019.06;;;0.33;100.00
20696;BME280;10507;52.754;13.040;2023-03-15T03:06:39;100036.59;;;0.33;100.00
20696;BME280;10507;52.754;13.040;2023-03-15T03:09:10;100059.28;;;0.37;100.00
20696;BME280;10507;52.754;13.040;2023-03-15T03:11:39;100034.88;;;0.30;100.00
20696;BME280;10507;52.754;13.040;2023-03-15T03:14:07;100062.06;;;0.29;100.00
20696;BME280;10507;52.754;13.040;2023-03-15T03:16:37;100048.97;;;0.25;100.00
20696;BME280;10507;52.754;13.040;2023-03-15T03:19:05;100055.19;;;0.20;100.00
20696;BME280;10507;52.754;13.040;2023-03-15T03:21:33;100073.59;;;0.19;100.00
20696;BME280;10507;52.754;13.040;2023-03-15T03:24:01;100079.72;;;0.18;100.00
20696;BME280;10507;52.754;13.040;2023-03-15T03:26:29;100104.19;;;0.20;100.00
20696;BME280;10507;52.754;13.040;2023-03-15T03:28:58;100108.63;;;0.16;100.00
20696;BME280;10507;52.754;13.040;2023-03-15T03:31:26;100129.59;;;0.18;100.00
20696;BME280;10507;52.754;13.040;2023-03-15T03:33:55;100127.00;;;0.16;100.00
20696;BME280;10507;52.754;13.040;2023-03-15T03:36:23;100154.91;;;0.22;100.00
20696;BME280;10507;52.754;13.040;2023-03-15T03:38:52;100156.69;;;0.20;100.00
20696;BME280;10507;52.754;13.040;2023-03-15T03:41:20;100140.16;;;0.13;100.00
20696;BME280;10507;52.754;13.040;2023-03-15T03:43:48;100142.84;;;0.12;100.00
20696;BME280;10507;52.754;13.040;2023-03-15T03:46:16;100162.06;;;0.11;100.00
20696;BME280;10507;52.754;13.040;2023-03-15T03:48:43;100156.88;;;0.08;100.00
20696;BME280;10507;52.754;13.040;2023-03-15T03:51:13;100156.06;;;0.04;100.00
20696;BME280;10507;52.754;13.040;2023-03-15T03:53:40;100157.84;;;0.02;100.00
20696;BME280;10507;52.754;13.040;2023-03-15T03:56:08;100175.34;;;0.02;100.00
20696;BME280;10507;52.754;13.040;2023-03-15T03:58:36;100191.09;;;0.02;100.00
20696;BME280;10507;52.754;13.040;2023-03-15T04:01:04;100165.81;;;-0.06;100.00
20696;BME280;10507;52.754;13.040;2023-03-15T04:03:31;100176.31;;;-0.06;100.00
20696;BME280;10507;52.754;13.040;2023-03-15T04:05:59;100179.88;;;-0.11;100.00
20696;BME280;10507;52.754;13.040;2023-03-15T04:08:28;100200.00;;;-0.10;100.00
20696;BME280;10507;52.754;13.040;2023-03-15T04:10:56;100223.59;;;-0.09;100.00
20696;BME280;10507;52.754;13.040;2023-03-15T04:13:24;100236.66;;;-0.04;100.00
20696;BME280;10507;52.754;13.040;2023-03-15T04:15:52;100211.41;;;-0.13;100.00
20696;BME280;10507;52.754;13.040;2023-03-15T04:18:23;100218.44;;;-0.13;100.00
20696;BME280;10507;52.754;13.040;2023-03-15T04:20:51;100238.50;;;-0.12;100.00
20696;BME280;10507;52.754;13.040;2023-03-15T04:23:21;100233.25;;;-0.11;100.00
20696;BME280;10507;52.754;13.040;2023-03-15T04:25:51;100235.03;;;-0.13;100.00
20696;BME280;10507;52.754;13.040;2023-03-15T04:28:20;100235.94;;;-0.15;100.00
20696;BME280;10507;52.754;13.040;2023-03-15T04:30:49;100238.56;;;-0.17;100.00
20696;BME280;10507;52.754;13.040;2023-03-15T04:33:17;100251.69;;;-0.15;100.00
20696;BME280;10507;52.754;13.040;2023-03-15T04:35:45;100249.06;;;-0.17;100.00
20696;BME280;10507;52.754;13.040;2023-03-15T04:38:13;100256.94;;;-0.17;100.00
20696;BME280;10507;52.754;13.040;2023-03-15T04:40:41;100263.03;;;-0.15;100.00
20696;BME280;10507;52.754;13.040;2023-03-15T04:43:10;100261.34;;;-0.19;100.00
20696;BME280;10507;52.754;13.040;2023-03-15T04:45:38;100268.28;;;-0.16;100.00
20696;BME280;10507;52.754;13.040;2023-03-15T04:48:06;100286.59;;;-0.12;100.00
20696;BME280;10507;52.754;13.040;2023-03-15T04:50:33;100256.03;;;-0.16;100.00
20696;BME280;10507;52.754;13.040;2023-03-15T04:53:01;100265.72;;;-0.18;100.00
20696;BME280;10507;52.754;13.040;2023-03-15T04:55:29;100285.75;;;-0.14;100.00
20696;BME280;10507;52.754;13.040;2023-03-15T04:57:57;100255.22;;;-0.19;100.00
20696;BME280;10507;52.754;13.040;2023-03-15T05:00:26;100267.44;;;-0.17;100.00
20696;BME280;10507;52.754;13.040;2023-03-15T05:02:54;100297.09;;;-0.12;100.00
20696;BME280;10507;52.754;13.040;2023-03-15T05:05:22;100312.81;;;-0.10;100.00
20696;BME280;10507;52.754;13.040;2023-03-15T05:07:50;100319.78;;;-0.06;100.00
20696;BME280;10507;52.754;13.040;2023-03-15T05:10:20;100308.44;;;-0.07;100.00
20696;BME280;10507;52.754;13.040;2023-03-15T05:12:47;100323.25;;;-0.04;100.00
20696;BME280;10507;52.754;13.040;2023-03-15T05:15:15;100317.09;;;-0.03;100.00
20696;BME280;10507;52.754;13.040;2023-03-15T05:17:44;100310.13;;;-0.04;100.00
20696;BME280;10507;52.754;13.040;2023-03-15T05:20:14;100324.97;;;-0.02;100.00
20696;BME280;10507;52.754;13.040;2023-03-15T05:22:42;100353.72;;;0.08;100.00
20696;BME280;10507;52.754;13.040;2023-03-15T05:25:10;100331.88;;;0.06;100.00
20696;BME280;10507;52.754;13.040;2023-03-15T05:27:39;100335.34;;;0.08;100.00
20696;BME280;10507;52.754;13.040;2023-03-15T05:30:09;100344.94;;;0.12;100.00
20696;BME280;10507;52.754;13.040;2023-03-15T05:32:37;100354.53;;;0.16;100.00
20696;BME280;10507;52.754;13.040;2023-03-15T05:35:07;100366.66;;;0.23;100.00
20696;BME280;10507;52.754;13.040;2023-03-15T05:37:35;100374.44;;;0.31;100.00
20696;BME280;10507;52.754;13.040;2023-03-15T05:40:04;100354.28;;;0.34;100.00
20696;BME280;10507;52.754;13.040;2023-03-15T05:42:34;100356.00;;;0.35;100.00
20696;BME280;10507;52.754;13.040;2023-03-15T05:45:01;100352.44;;;0.41;100.00
20696;BME280;10507;52.754;13.040;2023-03-15T05:47:29;100356.72;;;0.47;100.00
20696;BME280;10507;52.754;13.040;2023-03-15T05:50:02;100384.59;;;0.58;100.00
20696;BME280;10507;52.754;13.040;2023-03-15T05:52:32;100393.16;;;0.71;100.00
20696;BME280;10507;52.754;13.040;2023-03-15T05:55:00;100390.53;;;0.74;100.00
20696;BME280;10507;52.754;13.040;2023-03-15T05:57:31;100391.31;;;0.81;100.00
20696;BME280;10507;52.754;13.040;2023-03-15T06:00:00;100388.53;;;0.90;100.00
20696;BME280;10507;52.754;13.040;2023-03-15T06:02:28;100374.41;;;0.99;100.00
20696;BME280;10507;52.754;13.040;2023-03-15T06:04:55;100390.03;;;1.07;100.00
20696;BME280;10507;52.754;13.040;2023-03-15T06:07:26;100343.56;;;1.07;100.00
20696;BME280;10507;52.754;13.040;2023-03-15T06:10:03;100302.44;;;1.03;100.00
20696;BME280;10507;52.754;13.040;2023-03-15T06:12:36;100334.75;;;1.13;100.00
20696;BME280;10507;52.754;13.040;2023-03-15T06:15:08;100318.03;;;1.15;100.00
20696;BME280;10507;52.754;13.040;2023-03-15T06:17:37;100368.53;;;1.34;100.00
20696;BME280;10507;52.754;13.040;2023-03-15T06:20:05;100372.75;;;1.46;99.82
20696;BME280;10507;52.754;13.040;2023-03-15T06:22:33;100327.72;;;1.61;99.18
20696;BME280;10507;52.754;13.040;2023-03-15T06:25:06;100281.31;;;1.59;98.78
20696;BME280;10507;52.754;13.040;2023-03-15T06:27:38;100235.81;;;1.54;98.74
20696;BME280;10507;52.754;13.040;2023-03-15T06:30:07;100270.75;;;1.60;98.25
20696;BME280;10507;52.754;13.040;2023-03-15T06:32:37;100211.19;;;1.58;98.16
20696;BME280;10507;52.754;13.040;2023-03-15T06:35:07;100243.53;;;1.61;97.65
20696;BME280;10507;52.754;13.040;2023-03-15T06:37:38;100257.44;;;1.68;97.83
20696;BME280;10507;52.754;13.040;2023-03-15T06:40:10;100280.88;;;1.80;97.82
20696;BME280;10507;52.754;13.040;2023-03-15T06:42:39;100271.00;;;1.93;97.45
20696;BME280;10507;52.754;13.040;2023-03-15T06:45:08;100287.44;;;2.04;97.07
20696;BME280;10507;52.754;13.040;2023-03-15T06:47:36;100304.66;;;2.19;96.83
20696;BME280;10507;52.754;13.040;2023-03-15T06:50:04;100266.59;;;2.33;96.02
20696;BME280;10507;52.754;13.040;2023-03-15T06:52:32;100196.72;;;2.18;96.22
20696;BME280;10507;52.754;13.040;2023-03-15T06:55:00;100204.66;;;2.16;96.42
20696;BME280;10507;52.754;13.040;2023-03-15T06:57:29;100161.91;;;2.05;96.85
20696;BME280;10507;52.754;13.040;2023-03-15T06:59:59;100165.59;;;1.96;96.48
20696;BME280;10507;52.754;13.040;2023-03-15T07:02:27;100199.00;;;1.94;97.07
20696;BME280;10507;52.754;13.040;2023-03-15T07:04:59;100214.97;;;1.86;97.32
20696;BME280;10507;52.754;13.040;2023-03-15T07:07:27;100260.56;;;1.87;97.98
20696;BME280;10507;52.754;13.040;2023-03-15T07:09:54;100335.78;;;2.00;98.22
20696;BME280;10507;52.754;13.040;2023-03-15T07:12:22;100411.78;;;2.19;98.46
20696;BME280;10507;52.754;13.040;2023-03-15T07:14:51;100408.94;;;2.28;98.17
20696;BME280;10507;52.754;13.040;2023-03-15T07:17:19;100463.97;;;2.45;98.19
20696;BME280;10507;52.754;13.040;2023-03-15T07:19:47;100579.75;;;2.98;97.33
20696;BME280;10507;52.754;13.040;2023-03-15T07:22:22;100748.41;;;3.97;96.29
20696;BME280;10507;52.754;13.040;2023-03-15T07:24:50;100464.94;;;3.95;94.83
20696;BME280;10507;52.754;13.040;2023-03-15T07:27:18;100318.28;;;3.82;93.87
20696;BME280;10507;52.754;13.040;2023-03-15T07:29:46;100192.25;;;3.57;93.71
20696;BME280;10507;52.754;13.040;2023-03-15T07:32:15;100138.09;;;3.44;93.27
20696;BME280;10507;52.754;13.040;2023-03-15T07:34:43;100106.19;;;3.22;94.10
20696;BME280;10507;52.754;13.040;2023-03-15T07:37:11;100096.09;;;3.05;94.56
20696;BME280;10507;52.754;13.040;2023-03-15T07:39:39;100188.34;;;3.08;94.97
20696;BME280;10507;52.754;13.040;2023-03-15T07:42:07;100159.13;;;2.83;94.98
20696;BME280;10507;52.754;13.040;2023-03-15T07:44:35;100194.53;;;2.73;95.74
20696;BME280;10507;52.754;13.040;2023-03-15T07:47:03;100188.63;;;2.63;95.94
20696;BME280;10507;52.754;13.040;2023-03-15T07:49:32;100234.50;;;2.56;96.99
20696;BME280;10507;52.754;13.040;2023-03-15T07:52:00;100344.88;;;2.68;97.72
20696;BME280;10507;52.754;13.040;2023-03-15T07:54:29;100356.28;;;2.68;97.79
20696;BME280;10507;52.754;13.040;2023-03-15T07:56:57;100319.66;;;2.56;97.92
20696;BME280;10507;52.754;13.040;2023-03-15T07:59:25;100369.84;;;2.52;98.66
20696;BME280;10507;52.754;13.040;2023-03-15T08:01:53;100454.84;;;2.61;99.30
20696;BME280;10507;52.754;13.040;2023-03-15T08:04:21;100500.28;;;2.74;99.12
20696;BME280;10507;52.754;13.040;2023-03-15T08:06:50;100500.28;;;2.74;99.18
20696;BME280;10507;52.754;13.040;2023-03-15T08:09:17;100538.69;;;2.86;99.72
20696;BME280;10507;52.754;13.040;2023-03-15T08:11:45;100573.75;;;2.91;99.41
20696;BME280;10507;52.754;13.040;2023-03-15T08:14:13;100570.00;;;3.03;99.08
20696;BME280;10507;52.754;13.040;2023-03-15T08:16:41;100629.28;;;3.27;99.42
20696;BME280;10507;52.754;13.040;2023-03-15T08:19:08;100585.97;;;3.39;98.28
20696;BME280;10507;52.754;13.040;2023-03-15T08:21:36;100535.75;;;3.42;97.87
20696;BME280;10507;52.754;13.040;2023-03-15T08:24:05;100505.53;;;3.55;96.97
20696;BME280;10507;52.754;13.040;2023-03-15T08:26:33;100469.31;;;3.62;96.44
20696;BME280;10507;52.754;13.040;2023-03-15T08:29:01;100389.41;;;3.55;95.70
20696;BME280;10507;52.754;13.040;2023-03-15T08:31:29;100304.09;;;3.53;94.68
20696;BME280;10507;52.754;13.040;2023-03-15T08:33:57;100224.97;;;3.51;93.57
20696;BME280;10507;52.754;13.040;2023-03-15T08:36:25;100223.28;;;3.49;93.81
20696;BME280;10507;52.754;13.040;2023-03-15T08:38:53;100180.28;;;3.45;93.02
20696;BME280;10507;52.754;13.040;2023-03-15T08:41:22;100170.66;;;3.43;93.40
20696;BME280;10507;52.754;13.040;2023-03-15T08:43:50;100142.81;;;3.32;92.97
20696;BME280;10507;52.754;13.040;2023-03-15T08:46:18;100135.78;;;3.31;92.63
20696;BME280;10507;52.754;13.040;2023-03-15T08:48:47;100129.78;;;3.26;92.94
20696;BME280;10507;52.754;13.040;2023-03-15T08:51:15;100130.63;;;3.28;93.02
20696;BME280;10507;52.754;13.040;2023-03-15T08:53:43;100152.59;;;3.29;92.55
20696;BME280;10507;52.754;13.040;2023-03-15T08:56:11;100135.94;;;3.27;92.99
20696;BME280;10507;52.754;13.040;2023-03-15T08:58:40;100145.63;;;3.26;92.67
20696;BME280;10507;52.754;13.040;2023-03-15T09:01:10;100137.44;;;3.36;92.25
20696;BME280;10507;52.754;13.040;2023-03-15T09:03:38;100151.44;;;3.39;92.30
20696;BME280;10507;52.754;13.040;2023-03-15T09:06:08;100112.88;;;3.33;91.97
20696;BME280;10507;52.754;13.040;2023-03-15T09:08:36;100170.59;;;3.46;92.46
20696;BME280;10507;52.754;13.040;2023-03-15T09:11:04;100191.44;;;3.55;91.91
20696;BME280;10507;52.754;13.040;2023-03-15T09:13:32;100293.69;;;3.80;92.23
20696;BME280;10507;52.754;13.040;2023-03-15T09:16:01;100253.03;;;3.85;91.58
20696;BME280;10507;52.754;13.040;2023-03-15T09:18:30;100250.03;;;3.99;91.54
20696;BME280;10507;52.754;13.040;2023-03-15T09:20:57;100241.84;;;4.07;90.97
20696;BME280;10507;52.754;13.040;2023-03-15T09:23:26;100206.44;;;4.12;91.18
20696;BME280;10507;52.754;13.040;2023-03-15T09:25:54;100239.63;;;4.23;90.31
20696;BME280;10507;52.754;13.040;2023-03-15T09:28:21;100228.56;;;4.38;89.72
20696;BME280;10507;52.754;13.040;2023-03-15T09:30:51;100197.25;;;4.52;88.97
20696;BME280;10507;52.754;13.040;2023-03-15T09:33:20;100129.47;;;4.51;88.38
20696;BME280;10507;52.754;13.040;2023-03-15T09:35:49;100127.56;;;4.55;88.84
20696;BME280;10507;52.754;13.040;2023-03-15T09:38:18;100076.47;;;4.54;87.66
20696;BME280;10507;52.754;13.040;2023-03-15T09:40:47;100075.34;;;4.62;88.07
20696;BME280;10507;52.754;13.040;2023-03-15T09:46:21;100120.53;;;4.55;88.56
20696;BME280;10507;52.754;13.040;2023-03-15T09:48:55;100027.34;;;4.49;87.29
20696;BME280;10507;52.754;13.040;2023-03-15T09:51:38;99939.00;;;4.31;87.99
20696;BME280;10507;52.754;13.040;2023-03-15T09:54:11;100060.91;;;4.47;87.77
20696;BME280;10507;52.754;13.040;2023-03-15T09:56:45;100073.84;;;4.54;87.83
20696;BME280;10507;52.754;13.040;2023-03-15T09:59:15;100095.69;;;4.59;88.45
20696;BME280;10507;52.754;13.040;2023-03-15T10:01:50;100153.59;;;4.67;88.58
20696;BME280;10507;52.754;13.040;2023-03-15T10:04:24;100214.47;;;4.92;87.70
20696;BME280;10507;52.754;13.040;2023-03-15T10:06:55;100009.94;;;4.92;85.77
20696;BME280;10507;52.754;13.040;2023-03-15T10:09:25;100126.88;;;5.25;85.92
20696;BME280;10507;52.754;13.040;2023-03-15T10:12:02;100064.19;;;5.49;84.81
20696;BME280;10507;52.754;13.040;2023-03-15T10:14:47;100048.34;;;5.71;84.05
20696;BME280;10507;52.754;13.040;2023-03-15T10:17:24;100045.75;;;5.92;83.84
20696;BME280;10507;52.754;13.040;2023-03-15T10:19:58;99897.78;;;5.82;83.16
20696;BME280;10507;52.754;13.040;2023-03-15T10:22:31;99931.66;;;5.96;82.58
20696;BME280;10507;52.754;13.040;2023-03-15T10:25:04;100034.78;;;6.23;82.71
20696;BME280;10507;52.754;13.040;2023-03-15T10:27:41;100165.84;;;6.60;82.69
20696;BME280;10507;52.754;13.040;2023-03-15T10:30:14;100046.94;;;6.49;82.29
20696;BME280;10507;52.754;13.040;2023-03-15T10:32:44;99981.28;;;6.54;81.60
20696;BME280;10507;52.754;13.040;2023-03-15T10:35:16;99757.47;;;6.20;81.23
20696;BME280;10507;52.754;13.040;2023-03-15T10:37:45;100047.19;;;6.63;82.51
20696;BME280;10507;52.754;13.040;2023-03-15T10:40:13;99935.03;;;6.61;81.16
20696;BME280;10507;52.754;13.040;2023-03-15T10:42:43;99851.44;;;6.53;80.37
20696;BME280;10507;52.754;13.040;2023-03-15T10:45:18;99657.09;;;6.32;80.13
20696;BME280;10507;52.754;13.040;2023-03-15T10:47:47;99660.22;;;6.03;81.03
20696;BME280;10507;52.754;13.040;2023-03-15T10:50:29;99757.75;;;6.14;81.17
20696;BME280;10507;52.754;13.040;2023-03-15T10:52:58;99845.09;;;6.36;81.43
20696;BME280;10507;52.754;13.040;2023-03-15T10:55:30;99780.53;;;6.18;81.45
20696;BME280;10507;52.754;13.040;2023-03-15T10:58:13;99647.22;;;5.78;81.59
20696;BME280;10507;52.754;13.040;2023-03-15T11:00:48;99885.44;;;6.03;82.62
20696;BME280;10507;52.754;13.040;2023-03-15T11:03:19;99949.56;;;6.32;82.15
20696;BME280;10507;52.754;13.040;2023-03-15T11:05:51;99924.97;;;6.49;81.83
20696;BME280;10507;52.754;13.040;2023-03-15T11:08:21;99752.53;;;6.32;80.47
20696;BME280;10507;52.754;13.040;2023-03-15T11:10:55;99767.03;;;6.43;80.59
20696;BME280;10507;52.754;13.040;2023-03-15T11:13:25;99638.50;;;6.14;80.25
20696;BME280;10507;52.754;13.040;2023-03-15T11:15:59;99406.13;;;5.62;80.25
20696;BME280;10507;52.754;13.040;2023-03-15T11:18:33;99526.44;;;5.38;81.40
20696;BME280;10507;52.754;13.040;2023-03-15T11:21:07;99557.59;;;5.31;81.55
20696;BME280;10507;52.754;13.040;2023-03-15T11:23:38;99566.97;;;5.19;81.74
20696;BME280;10507;52.754;13.040;2023-03-15T11:26:14;99504.25;;;5.03;81.83
20696;BME280;10507;52.754;13.040;2023-03-15T11:28:58;99776.75;;;5.23;83.75
20696;BME280;10507;52.754;13.040;2023-03-15T11:31:27;99913.13;;;5.54;83.61
20696;BME280;10507;52.754;13.040;2023-03-15T11:33:57;99914.06;;;5.73;82.80
20696;BME280;10507;52.754;13.040;2023-03-15T11:36:30;99882.84;;;5.81;82.49
20696;BME280;10507;52.754;13.040;2023-03-15T11:39:01;99944.56;;;6.06;82.90
20696;BME280;10507;52.754;13.040;2023-03-15T11:41:35;99985.16;;;6.27;82.38
20696;BME280;10507;52.754;13.040;2023-03-15T11:44:12;99833.50;;;6.39;80.35
20696;BME280;10507;52.754;13.040;2023-03-15T11:46:47;99767.09;;;6.42;80.44
20696;BME280;10507;52.754;13.040;2023-03-15T11:49:28;99782.19;;;6.59;79.66
20696;BME280;10507;52.754;13.040;2023-03-15T11:51:59;99745.88;;;6.78;78.76
20696;BME280;10507;52.754;13.040;2023-03-15T11:54:29;99532.75;;;6.62;77.17
20696;BME280;10507;52.754;13.040;2023-03-15T11:57:00;99513.88;;;6.51;77.47
20696;BME280;10507;52.754;13.040;2023-03-15T11:59:30;99555.22;;;6.55;78.16
20696;BME280;10507;52.754;13.040;2023-03-15T12:02:06;99526.44;;;6.64;77.28
20696;BME280;10507;52.754;13.040;2023-03-15T12:04:48;99505.44;;;6.60;77.04
20696;BME280;10507;52.754;13.040;2023-03-15T12:07:35;99519.78;;;6.73;76.50
20696;BME280;10507;52.754;13.040;2023-03-15T12:10:29;99510.50;;;6.82;76.39
20696;BME280;10507;52.754;13.040;2023-03-15T12:12:59;99558.19;;;6.99;75.70
20696;BME280;10507;52.754;13.040;2023-03-15T12:15:57;99398.81;;;7.02;74.54
20696;BME280;10507;52.754;13.040;2023-03-15T12:18:37;99341.09;;;7.22;72.85
20696;BME280;10507;52.754;13.040;2023-03-15T12:21:12;99143.31;;;7.15;71.29
20696;BME280;10507;52.754;13.040;2023-03-15T12:23:46;98999.91;;;7.16;69.72
20696;BME280;10507;52.754;13.040;2023-03-15T12:26:24;99171.16;;;7.38;70.36
20696;BME280;10507;52.754;13.040;2023-03-15T12:29:09;99010.81;;;7.40;69.31
20696;BME280;10507;52.754;13.040;2023-03-15T12:31:45;98985.94;;;7.41;68.07
20696;BME280;10507;52.754;13.040;2023-03-15T12:34:26;99051.06;;;7.61;68.00
20696;BME280;10507;52.754;13.040;2023-03-15T12:36:57;99123.03;;;7.85;67.91
20696;BME280;10507;52.754;13.040;2023-03-15T12:39:43;99063.28;;;7.78;67.38
20696;BME280;10507;52.754;13.040;2023-03-15T12:42:57;99052.00;;;7.75;68.77
20696;BME280;10507;52.754;13.040;2023-03-15T12:45:41;98991.25;;;7.56;68.40
20696;BME280;10507;52.754;13.040;2023-03-15T12:48:26;98950.66;;;7.39;68.20
20696;BME280;10507;52.754;13.040;2023-03-15T12:51:00;98992.97;;;7.28;69.42
20696;BME280;10507;52.754;13.040;2023-03-15T12:53:47;98943.13;;;7.19;68.99
20696;BME280;10507;52.754;13.040;2023-03-15T12:56:28;98879.97;;;6.97;69.18
20696;BME280;10507;52.754;13.040;2023-03-15T12:59:03;98828.94;;;6.79;68.68
20696;BME280;10507;52.754;13.040;2023-03-15T13:01:33;98842.97;;;6.66;69.16
20696;BME280;10507;52.754;13.040;2023-03-15T13:04:02;98883.50;;;6.54;70.58
20696;BME280;10507;52.754;13.040;2023-03-15T13:06:37;99034.59;;;6.40;72.29
20696;BME280;10507;52.754;13.040;2023-03-15T13:09:17;99192.63;;;6.11;74.89
20696;BME280;10507;52.754;13.040;2023-03-15T13:11:53;99417.16;;;6.07;76.91